Flight Track Log - Related Links

Times and Time Zones

All times are in EDT time to prevent confusion due to time zone crossing. See the TAM3753 flight status page for this flight to view local times or setup timezone preferences in your user account.

Time Position Orientation Groundspeed Altitude Reporting Facility
EDT Latitude Longitude Course Direction KTS MPH feet Rate Location/Type
Tue 06:12:00 AM -19.9219 -43.8994 167° South  Level Estimated
Tue 06:13:00 AM -19.9796 -43.8855 167° South  Level Estimated
Tue 06:14:00 AM -20.0372 -43.8716 167° South  Level Estimated
Tue 06:15:00 AM -20.0948 -43.8576 167° South  Level Estimated
Tue 06:16:00 AM -20.1712 -43.8391 167° South  Level Estimated
Tue 06:17:00 AM -20.2476 -43.8206 167° South  Level Estimated
Tue 06:18:00 AM -20.3240 -43.8021 167° South  Level Estimated
Tue 06:19:00 AM -20.4004 -43.7836 167° South  Level Estimated
Tue 06:20:00 AM -20.4768 -43.7650 167° South  Level Estimated
Tue 06:21:00 AM -20.5532 -43.7464 167° South  Level Estimated
Tue 06:22:00 AM -20.6295 -43.7278 167° South  Level Estimated
Tue 06:23:00 AM -20.7059 -43.7092 167° South  Level Estimated
Tue 06:24:00 AM -20.7823 -43.6906 167° South  Level Estimated
Tue 06:25:00 AM -20.8587 -43.6719 167° South  Level Estimated
Tue 06:26:00 AM -20.9350 -43.6532 167° South  Level Estimated
Tue 06:27:00 AM -21.0114 -43.6345 167° South  Level Estimated
Tue 06:28:00 AM -21.0878 -43.6158 167° South  Level Estimated
Tue 06:29:00 AM -21.1642 -43.5971 167° South  Level Estimated
Tue 06:30:00 AM -21.2405 -43.5784 167° South  Level Estimated
Tue 06:31:00 AM -21.3169 -43.5596 167° South  Level Estimated
Tue 06:32:00 AM -21.3932 -43.5408 167° South  Level Estimated
Tue 06:33:00 AM -21.4696 -43.5220 167° South  Level Estimated
Tue 06:34:00 AM -21.5459 -43.5032 167° South  Level Estimated
Tue 06:35:00 AM -21.6223 -43.4843 167° South  Level Estimated
Tue 06:36:00 AM -21.6987 -43.4654 167° South  Level Estimated
Tue 06:37:00 AM -21.7750 -43.4465 167° South  Level Estimated
Tue 06:38:00 AM -21.8514 -43.4276 167° South  Level Estimated
Tue 06:39:00 AM -21.9277 -43.4087 167° South  Level Estimated
Tue 06:40:00 AM -22.0040 -43.3898 167° South  Level Estimated
Tue 06:41:00 AM -22.0804 -43.3708 167° South  Level Estimated
Tue 06:42:00 AM -22.1567 -43.3518 167° South  Level Estimated
Tue 06:43:00 AM -22.2331 -43.3328 167° South  Level Estimated
Tue 06:44:00 AM -22.3094 -43.3138 167° South  Level Estimated
Tue 06:45:00 AM -22.3857 -43.2947 167° South  Level Estimated
Tue 06:46:00 AM -22.4620 -43.2756 167° South  Level Estimated
Tue 06:47:00 AM -22.5384 -43.2565 167° South  Level Estimated
Tue 06:48:00 AM -22.6147 -43.2374 167° South  Level Estimated
Tue 06:49:00 AM -22.6910 -43.2183 167° South  Level Estimated
Tue 06:50:00 AM -22.7673 -43.1991 167° South  Level Estimated
Tue 06:51:00 AM -22.8437 -43.1799 167° South  Level Estimated
Tue 06:52:00 AM -22.9105 -43.1631 167° South  Level Estimated
Tue 06:53:00 AM -22.9105 -43.1631 250° West  Level Estimated
Tue 06:54:00 AM -22.9105 -43.1631 250° West  Level Estimated
Tue 06:55:00 AM -22.9105 -43.1631 250° West  Level Estimated
Tue 06:56:00 AM -22.9105 -43.1631 250° West  Level Estimated
Tue 06:57:00 AM -22.9105 -43.1631 250° West  Level Estimated
Tue 06:58:00 AM -22.9105 -43.1631 250° West  Level Estimated
Tue 06:59:00 AM -22.9105 -43.1631 250° West  Level Estimated
Tue 07:00:00 AM -22.9105 -43.1631 250° West  Level Estimated
Tue 07:01:00 AM -22.9105 -43.1631 250° West  Level Estimated
Tue 07:02:00 AM -22.9105 -43.1631 250° West  Level Estimated
Tue 07:03:00 AM -22.9105 -43.1631 250° West  Level Estimated
Tue 07:04:00 AM -22.9105 -43.1631 250° West  Level Estimated
Tue 07:05:00 AM -22.9105 -43.1631 250° West  Level Estimated
Tue 07:06:00 AM -22.9105 -43.1631 250° West  Level Estimated

Login

Don't have an account? Register now (free) for customized features, flight alerts, and more!